NCAR-RAP Real-Time Weather Data

Output produced by METARs form (24 April 2018  16:15 UTC)
found at http://weather.rap.ucar.edu/surface/
 
RORS 241000Z 30006KT 260V320 3500 TSRA FEW003 SCT010 FEW020CB BKN025 22/22 Q1009
RORS 240938Z 29007KT 3000 R35/1200VP1800U TSRA FEW004 SCT010 FEW020CB BKN025 22/22 Q1009 RMK 2ST004 4CU010 2CB020 7CU025 A2981 FBL TS OHD MOV E
RORS 240920Z 31011KT 1500 R35/0800VP1800D +TSRA FEW005 SCT010 FEW020CB BKN025 22/21 Q1009 RMK 2ST005 4CU010 2CB020 7CU025 A2980 FBL TS OHD MOV E RI++
RORS 240916Z 32010KT 1500 R35/1400VP1800N +TSRA FEW006 SCT010 FEW020CB BKN025 23/22 Q1009 RMK 2ST006 4CU010 2CB020 7CU025 A2981 FBL TS 10KM W-N MOV E RI++
RORS 240900Z 33011KT 8000 -TSRA FEW006 SCT015 FEW020CB BKN033 23/21 Q1008
RORS 240800Z 18008KT 9999 TS FEW007 FEW020CB BKN070 25/24 Q1008
RORS 240731Z 19009KT 9999 TS FEW005 FEW020CB BKN050 25/23 Q1008 RMK 1ST005 2CB020 6SC050 A2977 FBL TS 40KM W-N MOV E
RORS 240700Z 18013KT 9999 FEW005 SCT018 BKN/// 26/24 Q1007
RORS 240600Z 17013KT 9999 VCSH FEW005 SCT017 BKN050 26/24 Q1008
RORS 240500Z 18013KT 9999 -SHRA FEW005 SCT024 BKN050 26/24 Q1008
RORS 240400Z 18017KT 9999 FEW005 SCT030 BKN/// 27/24 Q1009
RORS 240300Z 18014KT 9999 FEW006 SCT070 BKN/// 27/24 Q1010
RORS 240200Z 18016KT 9999 FEW006 SCT070 BKN/// 27/24 Q1010
RORS 240100Z 18016KT 9999 FEW006 SCT050 BKN070 27/24 Q1010
RORS 240000Z 17014KT 9999 FEW005 BKN070 26/24 Q1010
RORS 232343Z 17014KT 9999 FEW005 BKN007 26/24 Q1010 RMK 2ST005 6ST007 A2984
RORS 232300Z 17014KT 9999 FEW005 SCT022 BKN/// 25/24 Q1010
RORS 232200Z 16012KT 9999 FEW005 BKN/// 25/24 Q1009
RORS 231017Z 15011KT 9999 FEW004 BKN005 25/24 Q1010 RMK 1ST004 6ST005 A2984
RORS 231000Z 15011KT 9999 FEW004 SCT006 25/23 Q1010
RORS 230900Z 15015KT 9999 FEW005 SCT007 BKN/// 26/24 Q1010
RORS 230837Z 15014KT 9999 FEW005 SCT007 BKN/// 26/24 Q1010 RMK 1ST005 3ST007 A2983
RORS 230800Z 15013KT 9999 FEW007 BKN008 26/24 Q1010
RORS 230700Z 16013KT 9999 FEW006 SCT007 BKN008 26/24 Q1010
RORS 230600Z 15015KT 9999 FEW006 BKN008 27/24 Q1010
RORS 230538Z 15015KT 9999 FEW006 BKN008 28/24 Q1010 RMK 1ST006 6ST008 A2985
RORS 230500Z 15017KT 9999 FEW006 SCT008 28/24 Q1011
RORS 230400Z 14018KT 9999 FEW008 27/24 Q1011
RORS 230300Z 14017KT 9999 FEW007 27/23 Q1012
RORS 230200Z 15015KT 9999 FEW007 27/24 Q1012
RORS 230100Z 15011KT 9999 FEW007 SCT015 26/24 Q1013
RORS 230000Z 15011KT 9999 -SHRA FEW008 BKN010 26/24 Q1013
RORS 222300Z 13013KT 9999 FEW007 SCT012 25/23 Q1012
RORS 222200Z 12010KT 9999 BKN009 24/23 Q1012
RORS 221000Z 14012KT 9999 FEW007 BKN/// 24/23 Q1012
RORS 220900Z 14014KT 9999 FEW007 SCT009 BKN/// 25/23 Q1012
RORS 220800Z 14013KT 9999 FEW009 BKN070 BKN/// 26/23 Q1012
RORS 220700Z 15014KT 9999 FEW006 SCT008 BKN019 26/24 Q1012
RORS 220600Z 15015KT 9999 SCT006 BKN017 27/24 Q1012
RORS 220500Z 14013KT 9999 SCT006 BKN011 27/24 Q1012